createdAt,value
2022-10-26T00:00:26.282Z,0
2022-10-26T00:01:26.589Z,0
2022-10-26T00:02:27.290Z,0
2022-10-26T00:03:27.630Z,0
2022-10-26T00:04:27.759Z,0
2022-10-26T00:05:27.888Z,0
2022-10-26T00:06:28.011Z,0
2022-10-26T00:07:28.178Z,0
2022-10-26T00:08:28.436Z,0
2022-10-26T00:09:28.562Z,0
2022-10-26T00:10:29.588Z,0
2022-10-26T00:11:32.106Z,0
2022-10-26T00:12:32.234Z,0
2022-10-26T00:13:32.358Z,0
2022-10-26T00:14:32.483Z,0
2022-10-26T00:15:32.612Z,0
2022-10-26T00:16:32.745Z,0
2022-10-26T00:17:32.895Z,0
2022-10-26T00:18:33.024Z,0
2022-10-26T00:19:33.154Z,0
2022-10-26T00:20:33.297Z,0
2022-10-26T00:21:33.429Z,0
2022-10-26T00:22:33.558Z,0
2022-10-26T00:23:33.687Z,0
2022-10-26T00:24:33.822Z,0
2022-10-26T00:25:33.959Z,0
2022-10-26T00:26:34.087Z,0
2022-10-26T00:27:34.220Z,0
2022-10-26T00:28:34.354Z,0
2022-10-26T00:29:34.483Z,0
2022-10-26T00:30:34.609Z,0
2022-10-26T00:31:34.735Z,0
2022-10-26T00:32:34.908Z,0
2022-10-26T00:33:35.230Z,0
2022-10-26T00:34:35.372Z,0
2022-10-26T00:35:45.410Z,0
2022-10-26T00:36:46.650Z,0
2022-10-26T00:37:47.118Z,0
2022-10-26T00:38:48.543Z,0
2022-10-26T00:39:48.667Z,0
2022-10-26T00:40:48.819Z,0
2022-10-26T00:41:49.123Z,0
2022-10-26T00:42:49.481Z,0
2022-10-26T00:43:50.595Z,0
2022-10-26T00:44:50.721Z,0
2022-10-26T00:45:50.849Z,0
2022-10-26T00:46:50.981Z,0
2022-10-26T00:47:51.106Z,0
2022-10-26T00:48:51.234Z,0
2022-10-26T00:49:51.360Z,0
2022-10-26T00:50:51.480Z,0
2022-10-26T00:51:51.605Z,0
2022-10-26T00:52:51.891Z,0
2022-10-26T00:53:52.138Z,0
2022-10-26T00:54:52.261Z,0
2022-10-26T00:55:52.386Z,0
2022-10-26T00:56:52.539Z,0
2022-10-26T00:57:52.670Z,0
2022-10-26T00:58:52.801Z,0
2022-10-26T00:59:52.923Z,0
2022-10-26T01:00:53.056Z,0
2022-10-26T01:01:53.181Z,0
2022-10-26T01:02:53.321Z,0
2022-10-26T01:03:53.482Z,0
2022-10-26T01:04:54.403Z,0
2022-10-26T01:05:54.526Z,0
2022-10-26T01:06:54.655Z,0
2022-10-26T01:07:54.786Z,0
2022-10-26T01:08:54.929Z,0
2022-10-26T01:09:55.047Z,0
2022-10-26T01:10:55.177Z,0
2022-10-26T01:11:55.305Z,0
2022-10-26T01:12:55.430Z,0
2022-10-26T01:13:55.556Z,0
2022-10-26T01:14:55.680Z,0
2022-10-26T01:15:55.807Z,0
2022-10-26T01:16:55.943Z,0
2022-10-26T01:17:56.158Z,0
2022-10-26T01:18:56.283Z,0
2022-10-26T01:19:56.407Z,0
2022-10-26T01:20:56.529Z,0
2022-10-26T01:21:56.652Z,0
2022-10-26T01:22:56.774Z,0
2022-10-26T01:23:56.894Z,0
2022-10-26T01:24:57.021Z,0
2022-10-26T01:25:57.147Z,0
2022-10-26T01:26:57.275Z,0
2022-10-26T01:27:57.412Z,0
2022-10-26T01:28:57.544Z,0
2022-10-26T01:29:57.669Z,0
2022-10-26T01:30:57.795Z,0
2022-10-26T01:31:57.916Z,0
2022-10-26T01:32:58.041Z,0
2022-10-26T01:33:58.170Z,0
2022-10-26T01:34:58.295Z,0
2022-10-26T01:35:58.415Z,0
2022-10-26T01:36:58.541Z,0
2022-10-26T01:37:58.662Z,0
2022-10-26T01:38:58.786Z,0
2022-10-26T01:39:58.908Z,0
2022-10-26T01:40:59.039Z,0
2022-10-26T01:41:59.163Z,0
2022-10-26T01:42:59.295Z,0
2022-10-26T01:43:59.423Z,0
2022-10-26T01:44:59.544Z,0
2022-10-26T01:45:59.667Z,0
2022-10-26T01:46:59.813Z,0
2022-10-26T01:47:59.951Z,0
2022-10-26T01:49:00.085Z,0
2022-10-26T01:50:00.226Z,0
2022-10-26T01:51:00.354Z,0
2022-10-26T01:52:00.475Z,0
2022-10-26T01:53:00.597Z,0
2022-10-26T01:54:00.721Z,0
2022-10-26T01:55:00.849Z,0
2022-10-26T01:56:00.982Z,0
2022-10-26T01:57:01.112Z,0
2022-10-26T01:58:01.237Z,0
2022-10-26T01:59:01.365Z,0
2022-10-26T02:00:01.485Z,0
2022-10-26T02:01:01.626Z,0
2022-10-26T02:02:01.751Z,0
2022-10-26T02:03:01.872Z,0
2022-10-26T02:04:02.106Z,0
2022-10-26T02:05:02.500Z,0
2022-10-26T02:06:02.649Z,0
2022-10-26T02:07:02.776Z,0
2022-10-26T02:08:02.905Z,0
2022-10-26T02:09:03.030Z,0
2022-10-26T02:10:03.161Z,0
2022-10-26T02:11:03.304Z,0
2022-10-26T02:12:03.431Z,0
2022-10-26T02:13:03.565Z,0
2022-10-26T02:14:03.740Z,0
2022-10-26T02:15:04.048Z,0
2022-10-26T02:16:04.189Z,0
2022-10-26T02:17:04.322Z,0
2022-10-26T02:18:04.442Z,0
2022-10-26T02:19:04.573Z,0
2022-10-26T02:20:04.711Z,0
2022-10-26T02:21:04.843Z,0
2022-10-26T02:22:04.968Z,0
2022-10-26T02:23:05.096Z,0
2022-10-26T02:24:05.274Z,0
2022-10-26T02:25:05.601Z,0
2022-10-26T02:26:05.724Z,0
2022-10-26T02:27:05.863Z,0
2022-10-26T02:28:05.992Z,0
2022-10-26T02:29:06.112Z,0
2022-10-26T02:30:06.238Z,0
2022-10-26T02:31:06.378Z,0
2022-10-26T02:32:06.511Z,0
2022-10-26T02:33:06.638Z,0
2022-10-26T02:34:06.767Z,0
2022-10-26T02:35:06.895Z,0
2022-10-26T02:36:07.026Z,0
2022-10-26T02:37:07.151Z,0
2022-10-26T02:38:07.280Z,0
2022-10-26T02:39:07.404Z,0
2022-10-26T02:40:07.530Z,0
2022-10-26T02:41:07.669Z,0
2022-10-26T02:42:07.796Z,0
2022-10-26T02:43:07.921Z,0
2022-10-26T02:44:08.063Z,0
2022-10-26T02:45:08.192Z,0
2022-10-26T02:46:08.317Z,0
2022-10-26T02:47:08.441Z,0
2022-10-26T02:48:08.565Z,0
2022-10-26T02:49:08.803Z,0
2022-10-26T02:50:08.941Z,0
2022-10-26T02:51:09.075Z,0
2022-10-26T02:52:09.209Z,0
2022-10-26T02:53:09.335Z,0
2022-10-26T02:54:09.461Z,0
2022-10-26T02:55:09.585Z,0
2022-10-26T02:56:09.719Z,0
2022-10-26T02:57:09.848Z,0
2022-10-26T02:58:09.976Z,0
2022-10-26T02:59:10.103Z,0
2022-10-26T03:00:13.318Z,0
2022-10-26T03:01:13.693Z,0
2022-10-26T03:02:13.941Z,0
2022-10-26T03:03:14.068Z,0
2022-10-26T03:04:14.277Z,0
2022-10-26T03:05:14.586Z,0
2022-10-26T03:06:14.714Z,0
2022-10-26T03:07:14.842Z,0
2022-10-26T03:08:15.015Z,0
2022-10-26T03:09:15.323Z,0
2022-10-26T03:10:15.449Z,0
2022-10-26T03:11:15.571Z,0
2022-10-26T03:12:15.700Z,0
2022-10-26T03:13:15.822Z,0
2022-10-26T03:14:15.951Z,0
2022-10-26T03:15:16.069Z,0
2022-10-26T03:16:16.194Z,0
2022-10-26T03:17:16.315Z,0
2022-10-26T03:18:16.441Z,0
2022-10-26T03:19:16.576Z,0
2022-10-26T03:20:16.701Z,0
2022-10-26T03:21:16.827Z,0
2022-10-26T03:22:16.951Z,0
2022-10-26T03:23:17.075Z,0
2022-10-26T03:24:17.254Z,0
2022-10-26T03:25:17.388Z,0
2022-10-26T03:26:17.521Z,0
2022-10-26T03:27:17.660Z,0
2022-10-26T03:28:17.789Z,0
2022-10-26T03:29:17.921Z,0
2022-10-26T03:30:18.045Z,0
2022-10-26T03:31:18.180Z,0
2022-10-26T03:32:18.415Z,0
2022-10-26T03:33:18.593Z,0
2022-10-26T03:34:18.969Z,0
2022-10-26T03:35:19.089Z,0
2022-10-26T03:36:19.211Z,0
2022-10-26T03:37:19.334Z,0
2022-10-26T03:38:19.464Z,0
2022-10-26T03:39:19.585Z,0
2022-10-26T03:40:19.707Z,0
2022-10-26T03:41:19.836Z,0
2022-10-26T03:42:19.964Z,0
2022-10-26T03:43:20.096Z,0
2022-10-26T03:44:20.222Z,0
2022-10-26T03:45:20.345Z,0
2022-10-26T03:46:20.473Z,0
2022-10-26T03:47:20.596Z,0
2022-10-26T03:48:20.725Z,0
2022-10-26T03:49:20.847Z,0
2022-10-26T03:50:20.974Z,0
2022-10-26T03:51:21.103Z,0
2022-10-26T03:52:21.226Z,0
2022-10-26T03:53:21.370Z,0
2022-10-26T03:54:21.493Z,0
2022-10-26T03:55:21.618Z,0
2022-10-26T03:56:21.744Z,0
2022-10-26T03:57:21.875Z,0
2022-10-26T03:58:22.027Z,0
2022-10-26T03:59:22.361Z,0
2022-10-26T04:00:22.507Z,0
2022-10-26T04:01:22.738Z,0
2022-10-26T04:02:23.087Z,0
2022-10-26T04:03:23.223Z,0
2022-10-26T04:04:23.417Z,0
2022-10-26T04:05:23.787Z,0
2022-10-26T04:06:23.910Z,0
2022-10-26T04:07:24.040Z,0
2022-10-26T04:08:24.167Z,0
2022-10-26T04:09:24.293Z,0
2022-10-26T04:10:24.440Z,0
2022-10-26T04:11:24.564Z,0
2022-10-26T04:12:24.691Z,0
2022-10-26T04:13:24.821Z,0
2022-10-26T04:14:24.942Z,0
2022-10-26T04:15:25.071Z,0
2022-10-26T04:16:27.375Z,0
2022-10-26T04:17:33.713Z,0
2022-10-26T04:18:33.841Z,0
2022-10-26T04:19:33.964Z,0
2022-10-26T04:20:34.089Z,0
2022-10-26T04:21:34.212Z,0
2022-10-26T04:22:34.339Z,0
2022-10-26T04:23:34.456Z,0
2022-10-26T04:24:34.591Z,0
2022-10-26T04:25:34.725Z,0
2022-10-26T04:26:34.865Z,0
2022-10-26T04:27:34.990Z,0
2022-10-26T04:28:35.113Z,0
2022-10-26T04:29:35.235Z,0
2022-10-26T04:30:35.363Z,0
2022-10-26T04:31:35.567Z,0
2022-10-26T04:32:35.811Z,0
2022-10-26T04:33:35.963Z,0
2022-10-26T04:34:36.085Z,0
2022-10-26T04:35:36.207Z,0
2022-10-26T04:36:36.335Z,0
2022-10-26T04:37:36.463Z,0
2022-10-26T04:38:36.585Z,0
2022-10-26T04:39:36.711Z,0
2022-10-26T04:40:36.841Z,0
2022-10-26T04:41:36.976Z,0
2022-10-26T04:42:37.102Z,0
2022-10-26T04:43:37.236Z,0
2022-10-26T04:44:37.362Z,0
2022-10-26T04:45:37.483Z,0
2022-10-26T04:46:37.615Z,0
2022-10-26T04:47:37.742Z,0
2022-10-26T04:48:37.869Z,0
2022-10-26T04:49:37.995Z,0
2022-10-26T04:50:38.120Z,0
2022-10-26T04:51:38.251Z,0
2022-10-26T04:52:38.382Z,0
2022-10-26T04:53:38.512Z,0
2022-10-26T04:54:38.632Z,0
2022-10-26T04:55:38.760Z,0
2022-10-26T04:56:38.899Z,0
2022-10-26T04:57:39.274Z,0
2022-10-26T04:58:39.403Z,0
2022-10-26T04:59:39.535Z,0
2022-10-26T05:00:39.658Z,0
2022-10-26T05:01:39.929Z,0
2022-10-26T05:02:40.562Z,0
2022-10-26T05:03:40.693Z,0
2022-10-26T05:04:40.822Z,0
2022-10-26T05:05:40.947Z,0
2022-10-26T05:06:41.072Z,0
2022-10-26T05:07:41.201Z,0
2022-10-26T05:08:41.328Z,0
2022-10-26T05:09:41.454Z,0
2022-10-26T05:10:41.581Z,0
2022-10-26T05:11:41.707Z,0
2022-10-26T05:12:41.831Z,0
2022-10-26T05:13:41.955Z,0
2022-10-26T05:14:42.080Z,0
2022-10-26T05:15:42.201Z,0
2022-10-26T05:16:42.329Z,0
2022-10-26T05:17:42.454Z,0
2022-10-26T05:18:42.572Z,0
2022-10-26T05:19:42.700Z,0
2022-10-26T05:20:43.182Z,0
2022-10-26T05:21:43.311Z,0
2022-10-26T05:22:49.727Z,0
2022-10-26T05:23:50.960Z,0
2022-10-26T05:24:51.092Z,0
2022-10-26T05:25:51.222Z,0
2022-10-26T05:26:51.350Z,0
2022-10-26T05:27:51.481Z,0
2022-10-26T05:28:51.610Z,0
2022-10-26T05:29:51.735Z,0
2022-10-26T05:30:51.867Z,0
2022-10-26T05:31:51.993Z,0
2022-10-26T05:32:52.122Z,0
2022-10-26T05:33:52.258Z,0
2022-10-26T05:34:52.396Z,0
2022-10-26T05:35:52.519Z,0
2022-10-26T05:36:52.644Z,0
2022-10-26T05:37:52.765Z,0
2022-10-26T05:38:53.414Z,0
2022-10-26T05:39:54.070Z,0
2022-10-26T05:40:54.193Z,0
2022-10-26T05:41:54.325Z,0
2022-10-26T05:42:54.462Z,1
2022-10-26T05:43:54.584Z,3
2022-10-26T05:44:54.710Z,4
2022-10-26T05:45:54.834Z,6
2022-10-26T05:46:54.969Z,7
2022-10-26T05:47:57.292Z,8
2022-10-26T05:49:03.487Z,8
2022-10-26T05:50:03.621Z,9
2022-10-26T05:51:03.751Z,10
2022-10-26T05:52:03.882Z,11
2022-10-26T05:53:04.007Z,11
2022-10-26T05:54:04.151Z,13
2022-10-26T05:55:04.401Z,15
2022-10-26T05:56:05.074Z,17
2022-10-26T05:57:10.966Z,17
2022-10-26T05:58:11.092Z,17
2022-10-26T05:59:11.226Z,17
2022-10-26T06:00:11.360Z,17
2022-10-26T06:01:11.628Z,17
2022-10-26T06:02:12.318Z,15
2022-10-26T06:03:12.785Z,15
2022-10-26T06:04:12.909Z,15
2022-10-26T06:05:13.034Z,15
2022-10-26T06:06:13.159Z,15
2022-10-26T06:07:13.288Z,15
2022-10-26T06:08:13.417Z,15
2022-10-26T06:09:13.551Z,15
2022-10-26T06:10:13.675Z,17
2022-10-26T06:11:13.799Z,17
2022-10-26T06:12:15.475Z,19
2022-10-26T06:13:20.277Z,21
2022-10-26T06:14:20.404Z,21
2022-10-26T06:15:20.537Z,24
2022-10-26T06:16:20.665Z,27
2022-10-26T06:17:20.788Z,33
2022-10-26T06:18:20.940Z,37
2022-10-26T06:19:21.077Z,55
2022-10-26T06:20:21.203Z,82.96
2022-10-26T06:21:21.362Z,94.96
2022-10-26T06:22:21.487Z,110
2022-10-26T06:23:21.614Z,110
2022-10-26T06:24:21.743Z,110
2022-10-26T06:25:21.868Z,110
2022-10-26T06:26:21.996Z,150
2022-10-26T06:27:22.124Z,169.92
2022-10-26T06:28:22.352Z,209.92
2022-10-26T06:29:22.690Z,240
2022-10-26T06:30:22.822Z,240
2022-10-26T06:31:22.947Z,269.92
2022-10-26T06:32:23.072Z,269.92
2022-10-26T06:33:30.971Z,300
2022-10-26T06:34:32.271Z,309.92
2022-10-26T06:35:32.392Z,329.92
2022-10-26T06:36:32.526Z,329.92
2022-10-26T06:37:32.655Z,329.92
2022-10-26T06:38:32.779Z,329.92
2022-10-26T06:39:32.905Z,369.92
2022-10-26T06:40:33.042Z,369.92
2022-10-26T06:41:33.184Z,409.92
2022-10-26T06:42:33.309Z,409.92
2022-10-26T06:43:33.432Z,409.92
2022-10-26T06:44:33.562Z,409.92
2022-10-26T06:45:33.725Z,459.84
2022-10-26T06:46:33.851Z,459.84
2022-10-26T06:47:33.988Z,509.76
2022-10-26T06:48:34.116Z,569.92
2022-10-26T06:49:34.283Z,629.76
2022-10-26T06:50:34.650Z,629.76
2022-10-26T06:51:34.806Z,699.52
2022-10-26T06:52:34.931Z,699.52
2022-10-26T06:53:35.100Z,699.52
2022-10-26T06:54:35.347Z,699.52
2022-10-26T06:55:35.472Z,699.52
2022-10-26T06:56:35.601Z,629.76
2022-10-26T06:57:35.723Z,560
2022-10-26T06:58:35.863Z,560
2022-10-26T06:59:35.991Z,499.84
2022-10-26T07:00:36.115Z,499.84
2022-10-26T07:01:36.357Z,499.84
2022-10-26T07:02:36.947Z,549.76
2022-10-26T07:03:37.368Z,549.76
2022-10-26T07:04:37.504Z,549.76
2022-10-26T07:05:37.631Z,609.92
2022-10-26T07:06:39.191Z,779.52
2022-10-26T07:07:39.795Z,779.52
2022-10-26T07:08:39.923Z,979.84
2022-10-26T07:09:40.046Z,1079.68
2022-10-26T07:10:40.191Z,1200
2022-10-26T07:11:40.319Z,1319.68
2022-10-26T07:12:40.443Z,1319.68
2022-10-26T07:13:40.570Z,1319.68
2022-10-26T07:14:40.698Z,1319.68
2022-10-26T07:15:40.823Z,1319.68
2022-10-26T07:16:40.964Z,1319.68
2022-10-26T07:17:42.017Z,1319.68
2022-10-26T07:18:43.026Z,1319.68
2022-10-26T07:19:43.146Z,1319.68
2022-10-26T07:20:43.282Z,1319.68
2022-10-26T07:21:43.407Z,1319.68
2022-10-26T07:22:43.526Z,1319.68
2022-10-26T07:23:43.653Z,1459.2
2022-10-26T07:24:43.797Z,1639.68
2022-10-26T07:25:43.935Z,1839.36
2022-10-26T07:26:44.068Z,2080
2022-10-26T07:27:44.193Z,2959.36
2022-10-26T07:28:44.369Z,3317.76
2022-10-26T07:29:44.516Z,3678.72
2022-10-26T07:30:44.674Z,3678.72
2022-10-26T07:31:44.867Z,3678.72
2022-10-26T07:32:45.180Z,3678.72
2022-10-26T07:33:45.306Z,3299.84
2022-10-26T07:34:45.438Z,3299.84
2022-10-26T07:35:45.565Z,2959.36
2022-10-26T07:36:45.694Z,2959.36
2022-10-26T07:37:45.819Z,2959.36
2022-10-26T07:38:45.956Z,2959.36
2022-10-26T07:39:46.085Z,2959.36
2022-10-26T07:40:46.213Z,2959.36
2022-10-26T07:41:46.348Z,2959.36
2022-10-26T07:42:47.612Z,3258.88
2022-10-26T07:43:48.154Z,3258.88
2022-10-26T07:44:48.272Z,4057.6
2022-10-26T07:45:48.395Z,4057.6
2022-10-26T07:46:48.516Z,4538.88
2022-10-26T07:47:48.636Z,5038.08
2022-10-26T07:48:48.765Z,5575.68
2022-10-26T07:49:48.894Z,6179.84
2022-10-26T07:50:49.020Z,6937.6
2022-10-26T07:51:49.154Z,7818.24
2022-10-26T07:52:49.487Z,6799.36
2022-10-26T07:53:50.440Z,6118.4
2022-10-26T07:54:50.567Z,9297.92
2022-10-26T07:55:50.696Z,11591.68
2022-10-26T07:56:50.825Z,11591.68
2022-10-26T07:57:52.500Z,9077.76
2022-10-26T07:58:56.356Z,9697.28
2022-10-26T07:59:56.489Z,11397.12
2022-10-26T08:00:56.656Z,12800
2022-10-26T08:01:57.347Z,14192.64
2022-10-26T08:02:57.697Z,12595.2
2022-10-26T08:03:57.836Z,10792.96
2022-10-26T08:04:57.965Z,9477.12
2022-10-26T08:05:58.087Z,8458.24
2022-10-26T08:06:58.211Z,7495.68
2022-10-26T08:07:58.344Z,6717.44
2022-10-26T08:08:58.474Z,5975.04
2022-10-26T08:09:58.598Z,5975.04
2022-10-26T08:10:58.741Z,5975.04
2022-10-26T08:11:58.862Z,6835.2
2022-10-26T08:12:58.987Z,7577.6
2022-10-26T08:13:59.113Z,7577.6
2022-10-26T08:14:59.240Z,7859.2
2022-10-26T08:15:59.363Z,10398.72
2022-10-26T08:16:59.493Z,12800
2022-10-26T08:17:59.621Z,14192.64
2022-10-26T08:18:59.764Z,12195.84
2022-10-26T08:19:59.891Z,9256.96
2022-10-26T08:21:01.954Z,8238.08
2022-10-26T08:22:16.809Z,8396.8
2022-10-26T08:23:16.948Z,12595.2
2022-10-26T08:24:17.081Z,14192.64
2022-10-26T08:25:18.908Z,15994.88
2022-10-26T08:26:21.851Z,16199.68
2022-10-26T08:27:21.980Z,17592.32
2022-10-26T08:28:22.114Z,21381.12
2022-10-26T08:29:22.239Z,18790.4
2022-10-26T08:30:22.497Z,16394.24
2022-10-26T08:31:22.984Z,18196.48
2022-10-26T08:32:23.120Z,18196.48
2022-10-26T08:33:23.249Z,18196.48
2022-10-26T08:34:23.372Z,20398.08
2022-10-26T08:35:23.498Z,20398.08
2022-10-26T08:36:23.623Z,20398.08
2022-10-26T08:37:23.754Z,22589.44
2022-10-26T08:38:23.877Z,22589.44
2022-10-26T08:39:24.006Z,22589.44
2022-10-26T08:40:24.146Z,17192.96
2022-10-26T08:41:24.268Z,17192.96
2022-10-26T08:42:24.395Z,19200
2022-10-26T08:43:24.527Z,21196.8
2022-10-26T08:44:24.664Z,15790.08
2022-10-26T08:45:29.693Z,15790.08
2022-10-26T08:46:37.376Z,19793.92
2022-10-26T08:47:37.503Z,21790.72
2022-10-26T08:48:37.630Z,24391.68
2022-10-26T08:49:37.756Z,24391.68
2022-10-26T08:50:39.270Z,26992.64
2022-10-26T08:51:43.145Z,23982.08
2022-10-26T08:52:43.273Z,19200
2022-10-26T08:53:43.408Z,19200
2022-10-26T08:54:43.529Z,21790.72
2022-10-26T08:55:45.847Z,21790.72
2022-10-26T08:56:47.231Z,23982.08
2022-10-26T08:57:51.705Z,24985.6
2022-10-26T08:58:52.965Z,24985.6
2022-10-26T08:59:53.091Z,18391.04
2022-10-26T09:00:53.245Z,14397.44
2022-10-26T09:01:53.618Z,17991.68
2022-10-26T09:02:53.818Z,21790.72
2022-10-26T09:03:53.999Z,24596.48
2022-10-26T09:04:54.245Z,24596.48
2022-10-26T09:05:54.374Z,24596.48
2022-10-26T09:06:54.547Z,24596.48
2022-10-26T09:07:54.996Z,24596.48
2022-10-26T09:08:55.120Z,20992
2022-10-26T09:09:55.241Z,16599.04
2022-10-26T09:10:55.367Z,16599.04
2022-10-26T09:11:55.492Z,12390.4
2022-10-26T09:12:55.618Z,10792.96
2022-10-26T09:13:57.560Z,14397.44
2022-10-26T09:15:00.274Z,21790.72
2022-10-26T09:16:00.456Z,23982.08
2022-10-26T09:17:00.734Z,21585.92
2022-10-26T09:18:00.859Z,23982.08
2022-10-26T09:19:01.939Z,26787.84
2022-10-26T09:20:03.427Z,26787.84
2022-10-26T09:21:03.549Z,23982.08
2022-10-26T09:22:03.682Z,26583.04
2022-10-26T09:23:03.819Z,26583.04
2022-10-26T09:24:03.940Z,29388.8
2022-10-26T09:25:06.792Z,32399.36
2022-10-26T09:26:08.113Z,32993.28
2022-10-26T09:27:08.237Z,32993.28
2022-10-26T09:28:08.377Z,32993.28
2022-10-26T09:29:08.502Z,32993.28
2022-10-26T09:30:08.630Z,32993.28
2022-10-26T09:31:08.752Z,32993.28
2022-10-26T09:32:08.877Z,32993.28
2022-10-26T09:33:09.010Z,32993.28
2022-10-26T09:34:09.132Z,32993.28
2022-10-26T09:35:09.283Z,33996.8
2022-10-26T09:36:11.794Z,33996.8
2022-10-26T09:37:17.287Z,34979.84
2022-10-26T09:38:17.414Z,34979.84
2022-10-26T09:39:17.535Z,34979.84
2022-10-26T09:40:17.679Z,34979.84
2022-10-26T09:41:17.810Z,34979.84
2022-10-26T09:42:17.937Z,34979.84
2022-10-26T09:43:18.062Z,34979.84
2022-10-26T09:44:18.185Z,34979.84
2022-10-26T09:45:18.308Z,35389.44
2022-10-26T09:46:18.434Z,35389.44
2022-10-26T09:47:18.554Z,35389.44
2022-10-26T09:48:18.678Z,35389.44
2022-10-26T09:49:18.804Z,35389.44
2022-10-26T09:50:19.023Z,35389.44
2022-10-26T09:51:19.321Z,35389.44
2022-10-26T09:52:19.449Z,35389.44
2022-10-26T09:53:19.576Z,35389.44
2022-10-26T09:54:19.703Z,35389.44
2022-10-26T09:55:19.831Z,34979.84
2022-10-26T09:56:19.969Z,34979.84
2022-10-26T09:57:20.090Z,34979.84
2022-10-26T09:58:20.228Z,34979.84
2022-10-26T09:59:20.359Z,34979.84
2022-10-26T10:00:20.505Z,34979.84
2022-10-26T10:01:20.853Z,34979.84
2022-10-26T10:02:21.132Z,34979.84
2022-10-26T10:03:21.329Z,34979.84
2022-10-26T10:04:21.817Z,34979.84
2022-10-26T10:05:27.455Z,36597.76
2022-10-26T10:06:52.795Z,36597.76
2022-10-26T10:07:52.924Z,36597.76
2022-10-26T10:08:53.083Z,36597.76
2022-10-26T10:09:53.377Z,36597.76
2022-10-26T10:10:53.504Z,36597.76
2022-10-26T10:11:53.644Z,36597.76
2022-10-26T10:12:53.833Z,36597.76
2022-10-26T10:13:53.954Z,36597.76
2022-10-26T10:14:54.078Z,36597.76
2022-10-26T10:15:54.517Z,38400
2022-10-26T10:16:54.646Z,38400
2022-10-26T10:17:55.000Z,38400
2022-10-26T10:18:56.145Z,38400
2022-10-26T10:19:56.295Z,38400
2022-10-26T10:20:56.422Z,38400
2022-10-26T10:21:56.563Z,38400
2022-10-26T10:22:56.690Z,38400
2022-10-26T10:23:56.821Z,38400
2022-10-26T10:24:56.946Z,38400
2022-10-26T10:25:57.130Z,39587.84
2022-10-26T10:26:57.458Z,39587.84
2022-10-26T10:27:57.602Z,39587.84
2022-10-26T10:28:57.813Z,39587.84
2022-10-26T10:29:59.678Z,39587.84
2022-10-26T10:31:04.755Z,38993.92
2022-10-26T10:32:05.065Z,38993.92
2022-10-26T10:33:05.204Z,38993.92
2022-10-26T10:34:05.343Z,38993.92
2022-10-26T10:35:05.472Z,39587.84
2022-10-26T10:36:05.601Z,39587.84
2022-10-26T10:37:05.723Z,39587.84
2022-10-26T10:38:05.850Z,39587.84
2022-10-26T10:39:05.977Z,39587.84
2022-10-26T10:40:06.106Z,39587.84
2022-10-26T10:41:06.232Z,39587.84
2022-10-26T10:42:06.359Z,39587.84
2022-10-26T10:43:06.493Z,39587.84
2022-10-26T10:44:06.628Z,39587.84
2022-10-26T10:45:06.754Z,42762.24
2022-10-26T10:46:06.886Z,42762.24
2022-10-26T10:47:07.015Z,42762.24
2022-10-26T10:48:07.138Z,47595.52
2022-10-26T10:49:07.264Z,53780.48
2022-10-26T10:50:07.385Z,67379.2
2022-10-26T10:51:07.518Z,74588.16
2022-10-26T10:52:07.637Z,74588.16
2022-10-26T10:53:07.767Z,74588.16
2022-10-26T10:54:07.890Z,66764.8
2022-10-26T10:55:08.018Z,66764.8
2022-10-26T10:56:09.277Z,66764.8
2022-10-26T10:57:11.924Z,66764.8
2022-10-26T10:58:12.050Z,66764.8
2022-10-26T10:59:12.484Z,66764.8
2022-10-26T11:00:12.798Z,66764.8
2022-10-26T11:01:13.040Z,66764.8
2022-10-26T11:02:13.680Z,66764.8
2022-10-26T11:03:14.562Z,66764.8
2022-10-26T11:04:16.740Z,66764.8
2022-10-26T11:05:16.903Z,66764.8
2022-10-26T11:06:17.034Z,66764.8
2022-10-26T11:07:17.161Z,66764.8
2022-10-26T11:08:17.286Z,66764.8
2022-10-26T11:09:17.405Z,66764.8
2022-10-26T11:10:17.528Z,66764.8
2022-10-26T11:11:17.661Z,66764.8
2022-10-26T11:12:17.789Z,66764.8
2022-10-26T11:13:17.918Z,66764.8
2022-10-26T11:14:18.045Z,70778.88
2022-10-26T11:15:18.172Z,70778.88
2022-10-26T11:16:18.306Z,70778.88
2022-10-26T11:17:18.429Z,70778.88
2022-10-26T11:18:18.553Z,70778.88
2022-10-26T11:19:18.681Z,70778.88
2022-10-26T11:20:18.809Z,70778.88
2022-10-26T11:21:18.934Z,70778.88
2022-10-26T11:22:19.073Z,70778.88
2022-10-26T11:23:19.265Z,70778.88
2022-10-26T11:24:19.514Z,72171.52
2022-10-26T11:25:19.666Z,72171.52
2022-10-26T11:26:19.920Z,72171.52
2022-10-26T11:27:20.044Z,72171.52
2022-10-26T11:28:20.171Z,72171.52
2022-10-26T11:29:20.310Z,72171.52
2022-10-26T11:30:20.440Z,72171.52
2022-10-26T11:31:20.567Z,72171.52
2022-10-26T11:32:20.692Z,72171.52
2022-10-26T11:33:20.823Z,72171.52
2022-10-26T11:34:20.948Z,71761.92
2022-10-26T11:35:21.075Z,71761.92
2022-10-26T11:36:21.906Z,71761.92
2022-10-26T11:37:22.377Z,71761.92
2022-10-26T11:38:27.877Z,71761.92
2022-10-26T11:39:56.815Z,70369.28
2022-10-26T11:40:56.949Z,70369.28
2022-10-26T11:41:57.072Z,70369.28
2022-10-26T11:42:57.212Z,70369.28
2022-10-26T11:43:57.338Z,74178.56
2022-10-26T11:44:57.465Z,74178.56
2022-10-26T11:46:03.685Z,74178.56
2022-10-26T11:47:03.821Z,74178.56
2022-10-26T11:48:03.945Z,74178.56
2022-10-26T11:49:04.364Z,74178.56
2022-10-26T11:50:04.488Z,74178.56
2022-10-26T11:51:04.615Z,74178.56
2022-10-26T11:52:04.742Z,58777.6
2022-10-26T11:53:04.874Z,51568.64
2022-10-26T11:54:05.008Z,45793.28
2022-10-26T11:55:05.137Z,40980.48
2022-10-26T11:56:05.278Z,36782.08
2022-10-26T11:57:05.400Z,28794.88
2022-10-26T11:58:05.521Z,23183.36
2022-10-26T11:59:05.660Z,20193.28
2022-10-26T12:00:05.806Z,20193.28
2022-10-26T12:01:05.991Z,20193.28
2022-10-26T12:02:06.365Z,20193.28
2022-10-26T12:03:06.531Z,20193.28
2022-10-26T12:04:06.673Z,20193.28
2022-10-26T12:05:06.823Z,17991.68
2022-10-26T12:06:06.976Z,17991.68
2022-10-26T12:07:07.294Z,16199.68
2022-10-26T12:08:07.418Z,16199.68
2022-10-26T12:09:07.553Z,20398.08
2022-10-26T12:10:07.682Z,24985.6
2022-10-26T12:11:09.874Z,24985.6
2022-10-26T12:12:10.070Z,24985.6
2022-10-26T12:13:10.199Z,24985.6
2022-10-26T12:14:10.322Z,24985.6
2022-10-26T12:15:10.447Z,27996.16
2022-10-26T12:16:10.574Z,27996.16
2022-10-26T12:17:10.712Z,25190.4
2022-10-26T12:18:10.833Z,25190.4
2022-10-26T12:19:10.959Z,22384.64
2022-10-26T12:20:11.101Z,22384.64
2022-10-26T12:21:11.224Z,19998.72
2022-10-26T12:22:11.348Z,17991.68
2022-10-26T12:23:16.036Z,16199.68
2022-10-26T12:24:47.788Z,15994.88
2022-10-26T12:25:47.918Z,15994.88
2022-10-26T12:26:48.045Z,15994.88
2022-10-26T12:27:50.250Z,15994.88
2022-10-26T12:28:52.265Z,15994.88
2022-10-26T12:29:54.876Z,15595.52
2022-10-26T12:30:55.004Z,15595.52
2022-10-26T12:31:55.131Z,15595.52
2022-10-26T12:32:55.261Z,15595.52
2022-10-26T12:33:55.393Z,18595.84
2022-10-26T12:34:55.516Z,20992
2022-10-26T12:35:55.707Z,20992
2022-10-26T12:36:55.940Z,20992
2022-10-26T12:37:56.073Z,20992
2022-10-26T12:38:56.193Z,20992
2022-10-26T12:39:56.314Z,20992
2022-10-26T12:40:56.437Z,28999.68
2022-10-26T12:41:56.565Z,49192.96
2022-10-26T12:42:56.689Z,54190.08
2022-10-26T12:43:56.815Z,54190.08
2022-10-26T12:44:56.949Z,48168.96
2022-10-26T12:45:57.082Z,37785.6
2022-10-26T12:46:57.203Z,29982.72
2022-10-26T12:47:57.330Z,26992.64
2022-10-26T12:48:57.457Z,24186.88
2022-10-26T12:49:57.583Z,24186.88
2022-10-26T12:50:57.707Z,24186.88
2022-10-26T12:51:57.850Z,24186.88
2022-10-26T12:52:58.100Z,29982.72
2022-10-26T12:53:58.227Z,43581.44
2022-10-26T12:54:58.362Z,47964.16
2022-10-26T12:55:58.487Z,58777.6
2022-10-26T12:56:58.611Z,66191.36
2022-10-26T12:57:58.730Z,66191.36
2022-10-26T12:59:02.374Z,66396.16
2022-10-26T13:00:05.269Z,39792.64
2022-10-26T13:01:05.496Z,28590.08
2022-10-26T13:02:05.703Z,22179.84
2022-10-26T13:03:05.826Z,19793.92
2022-10-26T13:04:05.953Z,23982.08
2022-10-26T13:05:07.348Z,40980.48
2022-10-26T13:06:08.394Z,46776.32
2022-10-26T13:07:08.519Z,51773.44
2022-10-26T13:08:08.642Z,56975.36
2022-10-26T13:09:11.781Z,56975.36
2022-10-26T13:10:20.541Z,63365.12
2022-10-26T13:11:20.671Z,56770.56
2022-10-26T13:12:20.812Z,50176
2022-10-26T13:13:20.945Z,44974.08
2022-10-26T13:14:21.102Z,44974.08
2022-10-26T13:15:21.226Z,44974.08
2022-10-26T13:16:21.355Z,44974.08
2022-10-26T13:17:21.504Z,44974.08